Time;durP1;ratioP1;P1;durP2;ratioP2;P2;SDS_P1;SDS_P2;PMS_P1;PMS_P2;Temp;Humidity;BMP_temperature;BMP_pressure;BME280_temperature;BME280_humidity;BME280_pressure;Samples;Min_cycle;Max_cycle;Signal;HPM_P1;HPM_P2
2023/08/11 00:01:58;;;;;;;3.95;2.50;;;;;;;-143.21;72.81;72135.63;5071208;28;20205;-86
2023/08/11 00:04:25;;;;;;;3.80;2.38;;;;;;;-143.21;72.28;72137.63;5070089;28;20687;-86
2023/08/11 00:06:52;;;;;;;4.57;2.30;;;;;;;-143.21;72.74;72131.69;5070314;28;20227;-86
2023/08/11 00:09:19;;;;;;;6.18;2.83;;;;;;;-143.21;72.51;72121.75;5070049;28;20272;-86
2023/08/11 00:11:46;;;;;;;5.68;2.67;;;;;;;-143.21;71.96;72121.75;5070090;28;20577;-86
2023/08/11 00:14:13;;;;;;;4.47;2.60;;;;;;;-143.21;71.05;72107.88;5070487;28;20205;-86
2023/08/11 00:16:39;;;;;;;2.88;2.22;;;;;;;-143.21;70.63;72105.91;5069944;28;20233;-86
2023/08/11 00:19:08;;;;;;;3.10;2.58;;;;;;;-143.21;70.23;72099.94;5070120;28;20229;-86
2023/08/11 00:21:34;;;;;;;2.70;2.00;;;;;;;-143.21;70.38;72095.97;5069481;28;20198;-87
2023/08/11 00:24:01;;;;;;;4.93;2.60;;;;;;;-143.21;70.31;72103.91;5070011;28;20236;-85
2023/08/11 00:26:30;;;;;;;5.80;2.50;;;;;;;-143.21;70.37;72103.91;5069626;28;20686;-85
2023/08/11 00:28:57;;;;;;;5.28;2.30;;;;;;;-143.21;70.15;72117.78;5070066;28;20267;-87
2023/08/11 00:31:24;;;;;;;4.88;2.30;;;;;;;-143.21;70.31;72131.69;5069356;28;20687;-85
2023/08/11 00:33:51;;;;;;;6.05;2.88;;;;;;;-143.21;71.00;72155.47;5070506;28;20202;-84
2023/08/11 00:36:19;;;;;;;3.05;2.75;;;;;;;-143.21;71.43;72151.50;5071841;28;20190;-84
2023/08/11 00:38:46;;;;;;;3.88;2.60;;;;;;;-143.21;71.55;72165.38;5071490;28;20209;-84
2023/08/11 00:41:15;;;;;;;3.92;2.50;;;;;;;-143.21;71.92;72187.19;5066094;28;20197;-85
2023/08/11 00:43:42;;;;;;;6.50;2.70;;;;;;;-143.21;72.27;72205.03;5069359;28;20201;-85
2023/08/11 00:46:11;;;;;;;15.73;9.90;;;;;;;-143.21;72.37;72197.13;5070172;28;20216;-84
2023/08/11 00:48:38;;;;;;;27.10;14.73;;;;;;;-143.21;72.52;72183.22;5069174;28;20258;-84
2023/08/11 00:51:06;;;;;;;63.40;42.33;;;;;;;-143.21;71.00;72177.28;5070148;28;20241;-84
2023/08/11 00:53:35;;;;;;;56.53;41.67;;;;;;;-143.21;71.31;72189.19;5069345;28;20228;-84
2023/08/11 00:56:03;;;;;;;53.83;38.03;;;;;;;-143.21;72.11;72191.16;5070137;28;20239;-84
2023/08/11 00:58:32;;;;;;;37.07;28.33;;;;;;;-143.21;72.66;72183.22;5069528;28;20221;-84
2023/08/11 01:00:59;;;;;;;18.40;11.63;;;;;;;-143.21;72.60;72171.34;5069671;28;20205;-84
2023/08/11 01:03:25;;;;;;;9.43;5.43;;;;;;;-143.21;71.29;72163.41;5069328;28;20279;-84
2023/08/11 01:06:03;;;;;;;6.20;3.90;;;;;;;-143.21;70.74;72157.44;5069529;28;20691;-84
2023/08/11 01:08:35;;;;;;;7.03;4.03;;;;;;;-143.21;70.31;72151.50;5069635;28;20225;-86
2023/08/11 01:11:18;;;;;;;11.10;3.90;;;;;;;-143.21;70.55;72155.47;5070112;28;20212;-87
2023/08/11 01:13:53;;;;;;;7.33;4.53;;;;;;;-143.21;70.87;72163.41;5069645;28;20212;-88
2023/08/11 01:16:24;;;;;;;12.30;4.22;;;;;;;-143.21;70.72;72165.38;5066607;28;20197;-87
2023/08/11 01:18:51;;;;;;;5.82;4.03;;;;;;;-143.21;71.79;72175.31;5066194;28;20205;-87
2023/08/11 01:21:20;;;;;;;6.33;3.80;;;;;;;-143.21;71.50;72165.38;5065622;28;20197;-86
2023/08/11 01:23:48;;;;;;;4.70;3.40;;;;;;;-143.21;70.97;72153.47;5069004;28;20193;-86
2023/08/11 01:26:16;;;;;;;6.13;3.40;;;;;;;-143.21;71.29;72155.47;5065462;28;20243;-84
2023/08/11 01:28:43;;;;;;;6.70;3.70;;;;;;;-143.21;71.51;72163.41;5069105;28;20205;-85
2023/08/11 01:31:10;;;;;;;8.47;3.47;;;;;;;-143.21;71.85;72167.38;5068592;28;20854;-83
2023/08/11 01:33:38;;;;;;;7.70;3.30;;;;;;;-143.21;71.87;72167.38;5068736;28;20333;-83
2023/08/11 01:36:05;;;;;;;4.23;3.00;;;;;;;-143.21;71.09;72179.25;5068925;28;20624;-84
2023/08/11 01:38:32;;;;;;;5.13;2.73;;;;;;;-143.21;71.14;72187.19;5068335;28;20355;-84
2023/08/11 01:41:00;;;;;;;6.72;3.05;;;;;;;-143.21;71.30;72181.25;5066145;28;20189;-85
2023/08/11 01:43:31;;;;;;;5.40;2.60;;;;;;;-143.21;71.02;72185.22;5066853;28;20197;-84
2023/08/11 01:45:59;;;;;;;3.07;2.73;;;;;;;-143.21;71.78;72185.22;5067656;28;20228;-84
2023/08/11 01:48:30;;;;;;;3.55;2.58;;;;;;;-143.21;71.05;72187.19;5066908;28;20237;-85
2023/08/11 01:50:57;;;;;;;4.82;3.17;;;;;;;-143.21;71.24;72195.13;5066932;28;20738;-83
2023/08/11 01:53:24;;;;;;;5.20;2.90;;;;;;;-143.21;71.36;72187.19;5066093;28;20205;-84
2023/08/11 01:55:51;;;;;;;4.57;3.10;;;;;;;-143.21;72.09;72189.19;5064603;28;20213;-84
2023/08/11 01:58:20;;;;;;;3.37;2.73;;;;;;;-143.21;72.72;72189.19;5067401;28;20229;-86
2023/08/11 02:00:46;;;;;;;7.37;3.10;;;;;;;-143.21;72.74;72193.16;5066570;28;20204;-85
2023/08/11 02:03:13;;;;;;;5.53;3.10;;;;;;;-143.21;72.32;72199.09;5066969;28;20197;-85
2023/08/11 02:05:40;;;;;;;8.33;3.10;;;;;;;-143.21;72.46;72212.97;5067503;28;20205;-85
2023/08/11 02:08:07;;;;;;;4.17;2.93;;;;;;;-143.21;72.05;72203.06;5066917;28;20680;-86
2023/08/11 02:10:34;;;;;;;6.70;3.20;;;;;;;-143.21;72.20;72211.00;5066874;28;20243;-86
2023/08/11 02:13:01;;;;;;;5.23;3.37;;;;;;;-143.21;72.52;72220.91;5067390;28;20212;-86
2023/08/11 02:15:30;;;;;;;3.53;3.00;;;;;;;-143.21;72.79;72234.78;5067075;28;20288;-87
2023/08/11 02:17:57;;;;;;;6.27;3.30;;;;;;;-143.21;73.28;72248.66;5066479;28;20305;-86
2023/08/11 02:20:24;;;;;;;4.90;3.30;;;;;;;-143.21;73.59;72248.66;5067136;28;20263;-85
2023/08/11 02:22:51;;;;;;;4.38;3.05;;;;;;;-143.21;73.94;72252.63;5067062;28;20209;-84
2023/08/11 02:25:18;;;;;;;5.90;2.73;;;;;;;-143.21;73.94;72250.66;5067090;28;20205;-85
2023/08/11 02:27:45;;;;;;;7.43;3.20;;;;;;;-143.21;74.29;72258.59;5067154;28;20228;-85
2023/08/11 02:30:13;;;;;;;4.87;3.40;;;;;;;-143.21;74.68;72270.50;5067623;28;20795;-85
2023/08/11 02:32:42;;;;;;;4.23;2.70;;;;;;;-143.21;75.33;72286.34;5067314;28;20290;-85
2023/08/11 02:35:10;;;;;;;4.10;3.20;;;;;;;-143.21;75.54;72294.28;5070461;28;20209;-85
2023/08/11 02:37:37;;;;;;;4.17;3.00;;;;;;;-143.21;75.33;72298.25;5070619;28;20225;-85
2023/08/11 02:40:07;;;;;;;4.77;2.83;;;;;;;-143.21;75.59;72296.28;5070433;28;20524;-85
2023/08/11 02:42:34;;;;;;;3.53;3.23;;;;;;;-143.21;75.77;72292.31;5070141;28;20305;-84
2023/08/11 02:45:03;;;;;;;5.50;3.03;;;;;;;-143.21;75.75;72294.28;5070728;28;20262;-84
2023/08/11 02:47:31;;;;;;;4.77;2.87;;;;;;;-143.21;75.80;72294.28;5049546;28;20656;-84
2023/08/11 02:49:59;;;;;;;4.97;2.80;;;;;;;-143.21;76.14;72292.31;5046470;28;20577;-84
2023/08/11 02:52:26;;;;;;;5.17;3.03;;;;;;;-143.21;76.01;72284.38;5067733;28;20205;-85
2023/08/11 02:54:52;;;;;;;7.37;3.27;;;;;;;-143.21;75.85;72288.34;5068467;28;20228;-85
2023/08/11 02:57:19;;;;;;;4.50;2.87;;;;;;;-143.21;75.63;72290.31;5067346;28;20232;-84
2023/08/11 02:59:49;;;;;;;4.53;2.80;;;;;;;-143.21;75.90;72284.38;5068389;28;20209;-84
2023/08/11 03:02:16;;;;;;;3.80;2.90;;;;;;;-143.21;75.76;72276.44;5069658;28;20233;-86
2023/08/11 03:04:43;;;;;;;3.47;2.77;;;;;;;-143.21;76.40;72264.53;5070049;28;20201;-85
2023/08/11 03:07:12;;;;;;;4.90;3.10;;;;;;;-143.21;75.98;72248.66;5070745;28;20213;-85
2023/08/11 03:09:39;;;;;;;7.03;3.40;;;;;;;-143.21;75.38;72248.66;5069335;28;20292;-84
2023/08/11 03:12:07;;;;;;;5.63;3.13;;;;;;;-143.21;75.58;72280.41;5069212;28;20205;-84
2023/08/11 03:14:33;;;;;;;6.37;3.23;;;;;;;-143.21;75.91;72286.34;5069196;28;20205;-83
2023/08/11 03:17:00;;;;;;;5.30;3.30;;;;;;;-143.21;76.04;72284.38;5067809;28;20204;-84
2023/08/11 03:19:27;;;;;;;13.00;3.10;;;;;;;-143.21;76.08;72282.38;5069685;28;20197;-84
2023/08/11 03:21:54;;;;;;;7.60;3.20;;;;;;;-143.21;76.25;72276.44;5069636;28;20233;-84
2023/08/11 03:24:24;;;;;;;6.43;3.20;;;;;;;-143.21;76.07;72270.50;5069734;28;20218;-83
2023/08/11 03:26:51;;;;;;;3.63;3.33;;;;;;;-143.21;76.14;72272.47;5067350;28;20636;-83
2023/08/11 03:29:17;;;;;;;8.37;3.50;;;;;;;-143.21;76.13;72274.47;5069510;28;20660;-82
2023/08/11 03:31:44;;;;;;;9.20;3.80;;;;;;;-143.21;75.90;72268.50;5068370;28;20201;-84
2023/08/11 03:34:11;;;;;;;5.83;3.17;;;;;;;-143.21;75.80;72270.50;5066411;28;20668;-84
2023/08/11 03:36:38;;;;;;;5.17;3.23;;;;;;;-143.21;76.06;72270.50;5069315;28;20201;-84
2023/08/11 03:39:06;;;;;;;8.70;3.70;;;;;;;-143.21;75.18;72266.53;5067166;28;20698;-82
2023/08/11 03:41:34;;;;;;;8.07;3.70;;;;;;;-143.21;74.74;72262.56;5067066;28;20209;-83
2023/08/11 03:44:01;;;;;;;8.30;3.80;;;;;;;-143.21;75.13;72266.53;5070065;28;20212;-83
2023/08/11 03:46:28;;;;;;;8.57;3.53;;;;;;;-143.21;75.51;72276.44;5069085;28;20197;-82
2023/08/11 03:48:54;;;;;;;9.63;3.70;;;;;;;-143.21;75.47;72276.44;5068677;28;20212;-84
2023/08/11 03:51:21;;;;;;;6.93;3.27;;;;;;;-143.21;75.90;72284.38;5069311;28;20232;-84
2023/08/11 03:53:48;;;;;;;7.93;3.93;;;;;;;-143.21;75.22;72280.41;5068040;28;20205;-84
2023/08/11 03:56:15;;;;;;;6.70;3.67;;;;;;;-143.21;75.17;72280.41;5057013;28;20857;-84
2023/08/11 03:58:43;;;;;;;6.83;4.07;;;;;;;-143.21;75.14;72272.47;5030246;28;20229;-85
2023/08/11 04:01:11;;;;;;;8.13;4.93;;;;;;;-143.21;75.65;72266.53;5046562;28;20205;-86
2023/08/11 04:03:38;;;;;;;8.47;5.33;;;;;;;-143.21;75.36;72260.56;5067404;28;20297;-86
2023/08/11 04:06:05;;;;;;;10.87;5.77;;;;;;;-143.21;75.22;72262.56;5068375;28;20288;-86
2023/08/11 04:08:32;;;;;;;10.03;5.53;;;;;;;-143.21;74.99;72248.66;5068642;28;20708;-85
2023/08/11 04:11:02;;;;;;;10.87;5.30;;;;;;;-143.21;75.14;72244.72;5067853;28;20217;-84
2023/08/11 04:13:29;;;;;;;6.50;4.73;;;;;;;-143.21;74.87;72250.66;5069129;28;20201;-84
2023/08/11 04:15:59;;;;;;;5.93;4.20;;;;;;;-143.21;74.81;72244.72;5068899;28;20285;-84
2023/08/11 04:18:29;;;;;;;5.70;4.00;;;;;;;-143.21;75.17;72242.72;5068857;28;20221;-83
2023/08/11 04:20:55;;;;;;;6.20;4.13;;;;;;;-143.21;75.17;72238.75;5067733;28;20205;-84
2023/08/11 04:23:22;;;;;;;7.97;3.50;;;;;;;-143.21;75.34;72244.72;5067966;28;20202;-84
2023/08/11 04:25:49;;;;;;;6.27;3.90;;;;;;;-143.21;75.85;72254.63;5069039;28;20233;-84
2023/08/11 04:28:16;;;;;;;10.83;3.77;;;;;;;-143.21;76.21;72264.53;5069007;28;20208;-83
2023/08/11 04:30:43;;;;;;;4.10;3.20;;;;;;;-143.21;76.63;72274.47;5068641;28;20208;-83
2023/08/11 04:33:12;;;;;;;4.37;3.27;;;;;;;-143.21;76.94;72274.47;5067500;28;20209;-83
2023/08/11 04:35:39;;;;;;;5.77;3.07;;;;;;;-143.21;76.62;72268.50;5068383;28;20259;-83
2023/08/11 04:38:05;;;;;;;5.37;3.20;;;;;;;-143.21;76.96;72264.53;5067644;28;20252;-85
2023/08/11 04:40:32;;;;;;;7.40;3.67;;;;;;;-143.21;76.30;72250.66;5068359;28;20594;-85
2023/08/11 04:42:59;;;;;;;5.27;3.37;;;;;;;-143.21;76.18;72260.56;5068251;28;20197;-84
2023/08/11 04:45:27;;;;;;;3.40;3.10;;;;;;;-143.21;76.44;72268.50;5068547;28;20294;-85
2023/08/11 04:47:54;;;;;;;5.90;3.40;;;;;;;-143.21;76.82;72274.47;5067697;28;20206;-84
2023/08/11 04:50:23;;;;;;;4.47;3.50;;;;;;;-143.21;76.62;72272.47;5068083;28;20707;-84
2023/08/11 04:52:49;;;;;;;5.43;3.13;;;;;;;-143.21;77.22;72278.41;5068221;28;20681;-84
2023/08/11 04:55:16;;;;;;;7.07;3.50;;;;;;;-143.21;77.47;72284.38;5066972;28;20197;-85
2023/08/11 04:57:43;;;;;;;4.40;3.50;;;;;;;-143.21;77.26;72274.47;5068003;28;20206;-85
2023/08/11 05:00:13;;;;;;;4.00;3.33;;;;;;;-143.21;77.20;72282.38;5067890;28;21016;-84
2023/08/11 05:02:41;;;;;;;4.73;3.07;;;;;;;-143.21;77.98;72308.16;5068273;28;20213;-84
2023/08/11 05:05:09;;;;;;;8.63;3.80;;;;;;;-143.21;78.82;72322.06;5066979;28;20975;-84
2023/08/11 05:07:37;;;;;;;8.97;3.90;;;;;;;-143.21;79.11;72320.06;5067843;28;20712;-84
2023/08/11 05:10:04;;;;;;;4.87;3.37;;;;;;;-143.21;78.88;72308.16;5067599;28;20641;-84
2023/08/11 05:12:31;;;;;;;5.03;3.60;;;;;;;-143.21;78.71;72308.16;5068232;28;20213;-85
2023/08/11 05:14:58;;;;;;;4.90;3.30;;;;;;;-143.21;78.46;72300.25;5067595;28;20201;-85
2023/08/11 05:17:25;;;;;;;5.13;3.60;;;;;;;-143.21;78.29;72306.19;5068457;28;20213;-84
2023/08/11 05:19:52;;;;;;;6.47;3.83;;;;;;;-143.21;78.45;72312.13;5067507;28;20746;-81
2023/08/11 05:22:19;;;;;;;6.27;4.20;;;;;;;-143.21;78.77;72316.09;5065598;28;20620;-88
2023/08/11 05:24:47;;;;;;;6.33;3.83;;;;;;;-143.21;78.78;72310.16;5070518;28;20202;-85
2023/08/11 05:27:15;;;;;;;5.93;4.13;;;;;;;-143.21;78.85;72310.16;5071362;28;20199;-80
2023/08/11 05:29:45;;;;;;;8.20;4.00;;;;;;;-143.21;79.20;72318.09;5070955;28;20206;-89
2023/08/11 05:32:12;;;;;;;4.00;3.60;;;;;;;-143.21;78.89;72308.16;5072137;28;20225;-87
2023/08/11 05:34:39;;;;;;;4.57;3.90;;;;;;;-143.21;78.38;72282.38;5072371;28;20237;-84
2023/08/11 05:37:05;;;;;;;4.37;3.53;;;;;;;-143.21;77.25;72264.53;5069799;28;20594;-84
2023/08/11 05:39:33;;;;;;;6.13;4.20;;;;;;;-143.21;76.65;72252.63;5069399;28;20253;-84
2023/08/11 05:42:01;;;;;;;4.47;3.80;;;;;;;-143.21;76.90;72260.56;5067522;28;20290;-82
2023/08/11 05:44:28;;;;;;;6.53;4.20;;;;;;;-143.21;77.21;72280.41;5068888;28;20205;-86
2023/08/11 05:46:55;;;;;;;7.13;4.50;;;;;;;-143.21;77.52;72290.31;5068556;28;20263;-83
2023/08/11 05:49:22;;;;;;;5.57;4.57;;;;;;;-143.21;78.13;72298.25;5069385;28;20582;-83
2023/08/11 05:51:48;;;;;;;6.50;4.27;;;;;;;-143.21;78.55;72312.13;5066115;28;20245;-84
2023/08/11 05:54:15;;;;;;;7.17;4.30;;;;;;;-143.21;78.47;72318.09;5069336;28;20216;-85
2023/08/11 05:56:42;;;;;;;8.17;4.27;;;;;;;-143.21;79.56;72328.00;5067975;28;20227;-84
2023/08/11 05:59:10;;;;;;;8.00;4.60;;;;;;;-143.21;79.92;72337.91;5069310;28;20324;-84
2023/08/11 06:01:37;;;;;;;8.00;4.57;;;;;;;-143.21;80.21;72320.06;5069717;28;20220;-83
2023/08/11 06:04:04;;;;;;;7.00;4.10;;;;;;;-143.21;78.97;72272.47;5069208;28;20207;-84
2023/08/11 06:06:31;;;;;;;6.33;4.13;;;;;;;-143.21;78.00;72240.75;5069569;28;20288;-83
2023/08/11 06:08:58;;;;;;;8.17;4.63;;;;;;;-143.21;76.92;72238.75;5068644;28;20216;-82
2023/08/11 06:11:25;;;;;;;5.72;4.28;;;;;;;-143.21;76.64;72236.78;5069466;28;20205;-82
2023/08/11 06:13:52;;;;;;;7.27;4.80;;;;;;;-143.21;76.87;72240.75;5066763;28;21005;-83
2023/08/11 06:16:20;;;;;;;5.97;4.13;;;;;;;-143.21;75.66;72242.72;5068552;28;20673;-82
2023/08/11 06:18:47;;;;;;;4.67;3.90;;;;;;;-143.21;76.37;72258.59;5069581;28;20229;-83
2023/08/11 06:21:14;;;;;;;6.53;4.17;;;;;;;-143.21;76.66;72250.66;5069223;28;20228;-83
2023/08/11 06:23:44;;;;;;;4.70;3.90;;;;;;;-143.21;76.77;72252.63;5068876;28;20664;-83
2023/08/11 06:26:11;;;;;;;8.00;4.50;;;;;;;-143.21;76.08;72246.69;5068657;28;20974;-83
2023/08/11 06:28:37;;;;;;;5.25;4.22;;;;;;;-143.21;75.99;72246.69;5068197;28;20205;-83
2023/08/11 06:31:04;;;;;;;6.50;4.20;;;;;;;-143.21;75.27;72226.84;5068484;28;20205;-82
2023/08/11 06:33:33;;;;;;;6.40;4.77;;;;;;;-143.21;73.79;72195.13;5069056;28;20209;-84
2023/08/11 06:35:59;;;;;;;4.70;4.30;;;;;;;-143.21;72.91;72179.25;5068743;28;20208;-84
2023/08/11 06:38:26;;;;;;;5.60;4.53;;;;;;;-143.21;73.31;72191.16;5069724;28;20236;-84
2023/08/11 06:40:53;;;;;;;8.15;4.60;;;;;;;-143.21;73.37;72199.09;5069135;28;20288;-85
2023/08/11 06:43:20;;;;;;;10.45;4.88;;;;;;;-143.21;73.36;72201.09;5069541;28;20197;-84
2023/08/11 06:45:47;;;;;;;7.55;5.15;;;;;;;-143.21;73.42;72197.13;5069568;28;20217;-84
2023/08/11 06:48:14;;;;;;;5.93;4.72;;;;;;;-143.21;73.35;72193.16;5069010;28;20695;-83
2023/08/11 06:50:42;;;;;;;5.80;4.55;;;;;;;-143.21;73.14;72195.13;5067677;28;20628;-83
2023/08/11 06:53:09;;;;;;;8.45;4.50;;;;;;;-143.21;72.92;72191.16;5068562;28;20208;-83
2023/08/11 06:55:36;;;;;;;9.05;5.10;;;;;;;-143.21;72.10;72175.31;5067326;28;20292;-83
2023/08/11 06:58:02;;;;;;;5.38;4.50;;;;;;;-143.21;71.88;72169.34;5067370;28;20254;-83
2023/08/11 07:00:29;;;;;;;6.35;4.63;;;;;;;-143.21;71.35;72161.41;5065991;28;20339;-83
2023/08/11 07:02:56;;;;;;;6.55;4.95;;;;;;;-143.21;71.12;72139.59;5066859;28;20205;-83
2023/08/11 07:05:23;;;;;;;7.25;5.00;;;;;;;-143.21;70.60;72113.81;5067998;28;20745;-82
2023/08/11 07:07:51;;;;;;;6.47;4.90;;;;;;;-143.21;70.35;72099.94;5067510;28;20707;-84
2023/08/11 07:10:18;;;;;;;6.88;4.45;;;;;;;-143.21;69.82;72090.03;5065067;28;20247;-81
2023/08/11 07:12:47;;;;;;;8.60;4.63;;;;;;;-143.21;68.65;72092.00;5067838;28;20200;-79
2023/08/11 07:15:13;;;;;;;6.25;5.03;;;;;;;-143.21;69.32;72092.00;5066617;28;20205;-80
2023/08/11 07:17:40;;;;;;;7.30;4.45;;;;;;;-143.21;67.96;72094.00;5066348;28;20233;-84
2023/08/11 07:20:08;;;;;;;8.38;5.00;;;;;;;-143.21;67.79;72105.91;5062238;28;20214;-80
2023/08/11 07:22:35;;;;;;;6.20;5.00;;;;;;;-143.21;68.16;72113.81;5069674;28;20194;-80
2023/08/11 07:25:03;;;;;;;6.18;4.45;;;;;;;-143.21;68.62;72107.88;5069704;28;20274;-79
2023/08/11 07:27:30;;;;;;;7.20;5.28;;;;;;;-143.21;68.43;72103.91;5069942;28;20213;-80
2023/08/11 07:29:57;;;;;;;7.95;4.93;;;;;;;-143.21;68.70;72088.03;5069201;28;20189;-80
2023/08/11 07:32:24;;;;;;;8.52;5.10;;;;;;;-143.21;68.22;72082.09;5069449;28;20204;-80
2023/08/11 07:34:50;;;;;;;6.18;4.82;;;;;;;-143.21;68.48;72076.16;5068833;28;20198;-80
2023/08/11 07:37:17;;;;;;;5.80;5.10;;;;;;;-143.21;68.48;72062.25;5070056;28;20194;-79
2023/08/11 07:39:44;;;;;;;13.40;5.15;;;;;;;-143.21;68.20;72054.34;5069144;28;20213;-79
2023/08/11 07:42:13;;;;;;;10.27;5.07;;;;;;;-143.21;67.95;72046.41;5068432;28;20213;-79
2023/08/11 07:44:40;;;;;;;7.88;4.40;;;;;;;-143.21;68.87;72018.63;5068962;28;20286;-80
2023/08/11 07:47:07;;;;;;;8.60;5.25;;;;;;;-143.21;67.27;72000.78;5069223;28;20267;-79
2023/08/11 07:49:34;;;;;;;8.80;4.97;;;;;;;-143.21;66.58;71984.94;5069420;28;20201;-79
2023/08/11 07:52:01;;;;;;;8.00;4.88;;;;;;;-143.21;66.27;71980.97;5069033;28;20236;-79
2023/08/11 07:54:27;;;;;;;6.82;5.38;;;;;;;-143.21;66.09;71967.09;5068753;28;20205;-80
2023/08/11 07:56:54;;;;;;;6.78;4.90;;;;;;;-143.21;64.58;71955.19;5067778;28;20645;-79
2023/08/11 07:59:23;;;;;;;7.78;4.82;;;;;;;-143.21;64.33;71978.97;5069816;28;20221;-79
2023/08/11 08:01:51;;;;;;;7.35;4.95;;;;;;;-143.21;64.63;71977.00;5070162;28;20231;-80
2023/08/11 08:04:18;;;;;;;5.78;4.45;;;;;;;-143.21;64.78;71977.00;5068551;28;20229;-83
2023/08/11 08:06:46;;;;;;;8.75;5.55;;;;;;;-143.21;64.45;71957.16;5071831;28;20208;-82
2023/08/11 08:09:14;;;;;;;12.70;6.03;;;;;;;-143.21;64.23;71951.22;5071218;28;20237;-82
2023/08/11 08:11:43;;;;;;;8.77;6.28;;;;;;;-143.21;63.55;71935.34;5071317;28;21069;-82
2023/08/11 08:14:11;;;;;;;9.52;5.82;;;;;;;-143.21;63.11;71925.44;5070479;28;20441;-83
2023/08/11 08:16:41;;;;;;;8.75;5.75;;;;;;;-143.21;63.53;71911.56;5070110;28;20213;-82
2023/08/11 08:19:10;;;;;;;8.23;5.07;;;;;;;-143.21;63.46;71903.63;5068618;28;20225;-81
2023/08/11 08:21:37;;;;;;;7.20;5.15;;;;;;;-143.21;63.34;71883.81;5069598;28;20205;-82
2023/08/11 08:24:04;;;;;;;14.85;4.75;;;;;;;-143.21;65.36;71863.97;5070665;28;21008;-82
2023/08/11 08:26:31;;;;;;;8.82;4.75;;;;;;;-143.21;60.19;71854.06;5071166;28;20217;-83
2023/08/11 08:28:59;;;;;;;5.90;4.63;;;;;;;-143.21;59.84;71852.06;5070228;28;20224;-80
2023/08/11 08:31:27;;;;;;;6.97;5.25;;;;;;;-143.21;59.90;71850.09;5068414;28;20205;-79
2023/08/11 08:33:55;;;;;;;8.18;5.82;;;;;;;-143.21;60.05;71852.06;5069012;28;20602;-79
2023/08/11 08:36:22;;;;;;;9.18;4.70;;;;;;;-143.21;59.16;71842.16;5064057;28;20992;-84
2023/08/11 08:38:48;;;;;;;6.15;4.90;;;;;;;-143.21;59.21;71840.19;5070752;28;20205;-83
2023/08/11 08:41:19;;;;;;;9.20;4.13;;;;;;;-143.21;58.74;71842.16;5070524;28;20212;-83
2023/08/11 08:43:47;;;;;;;9.00;4.68;;;;;;;-143.21;59.82;71838.19;5070342;28;20212;-83
2023/08/11 08:46:16;;;;;;;5.45;4.40;;;;;;;-143.21;59.81;71824.31;5070739;28;20205;-82
2023/08/11 08:48:48;;;;;;;9.35;4.28;;;;;;;-143.21;58.96;71810.44;5070734;28;20212;-80
2023/08/11 08:51:17;;;;;;;6.30;4.65;;;;;;;-143.21;59.23;71808.44;5064073;28;20257;-81
2023/08/11 08:53:44;;;;;;;8.38;4.20;;;;;;;-143.21;58.51;71802.50;5062651;28;20267;-82
2023/08/11 08:56:11;;;;;;;7.65;4.75;;;;;;;-143.21;57.89;71800.53;5066955;28;20205;-81
2023/08/11 08:58:38;;;;;;;6.40;4.20;;;;;;;-143.21;57.58;71808.44;5070816;28;20889;-82
2023/08/11 09:01:07;;;;;;;7.40;4.85;;;;;;;-143.21;57.69;71810.44;5069764;28;20232;-82
2023/08/11 09:03:37;;;;;;;7.00;4.03;;;;;;;-143.21;57.32;71800.53;5069478;28;20288;-81
2023/08/11 09:06:05;;;;;;;5.80;4.15;;;;;;;-143.21;56.00;71810.44;5069594;28;20234;-82
2023/08/11 09:08:33;;;;;;;4.55;3.63;;;;;;;-143.21;55.79;71808.44;5070729;28;20206;-82
2023/08/11 09:11:01;;;;;;;6.68;3.83;;;;;;;-143.21;55.62;71800.53;5068352;28;20789;-83
2023/08/11 09:13:28;;;;;;;4.55;3.65;;;;;;;-143.21;55.48;71804.47;5070723;28;20194;-82
2023/08/11 09:15:55;;;;;;;9.18;4.47;;;;;;;-143.21;55.50;71784.66;5070446;28;20246;-82
2023/08/11 09:18:24;;;;;;;9.75;3.90;;;;;;;-143.21;55.56;71766.81;5069078;28;20206;-82
2023/08/11 09:20:51;;;;;;;6.20;3.67;;;;;;;-143.21;56.11;71748.97;5069032;28;20821;-82
2023/08/11 09:23:18;;;;;;;6.32;3.70;;;;;;;-143.21;57.05;71721.22;5066374;28;20270;-82
2023/08/11 09:25:47;;;;;;;5.82;3.80;;;;;;;-143.21;55.40;71693.44;5068984;28;20248;-83
2023/08/11 09:28:15;;;;;;;6.40;4.00;;;;;;;-143.21;55.57;71665.69;5068888;28;20210;-80
2023/08/11 09:30:42;;;;;;;5.28;3.85;;;;;;;-143.21;55.05;71633.97;5068900;28;20275;-82
2023/08/11 09:33:09;;;;;;;6.32;3.53;;;;;;;-143.21;52.57;71628.00;5068658;28;20209;-84
2023/08/11 09:35:41;;;;;;;7.65;3.60;;;;;;;-143.21;52.28;71616.13;5068852;28;20585;-83
2023/08/11 09:38:08;;;;;;;8.35;4.10;;;;;;;-143.21;52.94;71606.22;5053516;28;20202;-80
2023/08/11 09:40:35;;;;;;;4.13;3.65;;;;;;;-143.21;52.76;71590.34;5066473;28;20722;-81
2023/08/11 09:43:03;;;;;;;5.32;3.80;;;;;;;-143.21;52.71;71572.50;5067965;28;20208;-80
2023/08/11 09:45:32;;;;;;;5.90;4.05;;;;;;;-143.21;51.06;71560.59;5067745;28;20288;-80
2023/08/11 09:47:58;;;;;;;6.30;3.42;;;;;;;-143.21;50.47;71560.59;5066158;28;20285;-81
2023/08/11 09:50:28;;;;;;;4.95;3.90;;;;;;;-143.21;50.23;71564.56;5066702;28;20237;-81
2023/08/11 09:52:58;;;;;;;6.00;3.67;;;;;;;-143.21;50.38;71564.56;5068469;28;20209;-81
2023/08/11 09:55:29;;;;;;;7.05;3.25;;;;;;;-143.21;50.23;71568.53;5066047;28;20228;-81
2023/08/11 09:57:57;;;;;;;4.45;3.80;;;;;;;-143.21;50.48;71588.38;5067743;28;20196;-80
2023/08/11 10:00:25;;;;;;;8.10;3.50;;;;;;;-143.21;51.95;71584.41;5067775;28;20221;-81
2023/08/11 10:03:00;;;;;;;7.95;3.60;;;;;;;-143.21;51.02;71576.47;5067592;28;20194;-81
2023/08/11 10:05:29;;;;;;;7.57;3.67;;;;;;;-143.21;50.19;71570.53;5065293;28;20200;-83
2023/08/11 10:07:57;;;;;;;5.13;3.60;;;;;;;-143.21;50.73;71562.59;5068701;28;20204;-84
2023/08/11 10:10:24;;;;;;;5.18;3.72;;;;;;;-143.21;49.89;71550.69;5069085;28;20212;-83
2023/08/11 10:13:08;;;;;;;7.75;3.95;;;;;;;-143.21;49.95;71550.69;5069108;28;20501;-84
2023/08/11 10:15:38;;;;;;;4.53;3.40;;;;;;;-143.21;50.54;71552.69;5068869;28;20258;-84
2023/08/11 10:18:07;;;;;;;3.80;3.30;;;;;;;-143.21;49.92;71548.72;5068401;28;20608;-83
2023/08/11 10:20:34;;;;;;;4.85;3.60;;;;;;;-143.21;49.95;71544.75;5068771;28;20233;-83
2023/08/11 10:23:02;;;;;;;6.13;3.83;;;;;;;-143.21;50.00;71540.78;5069727;28;20205;-83
2023/08/11 10:25:32;;;;;;;4.03;3.63;;;;;;;-143.21;50.10;71542.75;5069824;28;20197;-84
2023/08/11 10:28:01;;;;;;;4.82;3.55;;;;;;;-143.21;50.68;71536.81;5069735;28;20621;-82
2023/08/11 10:30:28;;;;;;;8.32;3.33;;;;;;;-143.21;50.94;71528.88;5068529;28;20197;-83
2023/08/11 10:33:03;;;;;;;6.50;3.50;;;;;;;-143.21;52.01;71518.97;5068812;28;20206;-84
2023/08/11 10:35:35;;;;;;;3.67;3.20;;;;;;;-143.21;52.14;71526.91;5069306;28;20203;-82
2023/08/11 10:38:05;;;;;;;4.47;3.95;;;;;;;-143.21;52.07;71526.91;5068495;28;20229;-83
2023/08/11 10:40:36;;;;;;;3.80;3.40;;;;;;;-143.21;52.91;71526.91;5067703;28;20233;-82
2023/08/11 10:43:04;;;;;;;3.97;3.58;;;;;;;-143.21;51.94;71520.94;5068707;28;20869;-81
2023/08/11 10:45:33;;;;;;;5.85;3.40;;;;;;;-143.21;52.22;71524.91;5067452;28;20255;-80
2023/08/11 10:48:07;;;;;;;8.38;3.85;;;;;;;-143.21;52.11;71516.97;5067422;28;20202;-81
2023/08/11 10:50:37;;;;;;;6.35;3.92;;;;;;;-143.21;51.83;71518.97;5059177;28;20236;-84
2023/08/11 10:53:08;;;;;;;6.28;3.50;;;;;;;-143.21;52.15;71515.00;5062908;28;20201;-83
2023/08/11 10:55:35;;;;;;;6.28;3.60;;;;;;;-143.21;52.47;71503.09;5066701;28;20228;-82
2023/08/11 10:58:13;;;;;;;6.32;3.60;;;;;;;-143.21;52.20;71487.25;5072377;28;20355;-82
2023/08/11 11:00:41;;;;;;;6.30;3.50;;;;;;;-143.21;52.32;71465.44;5072381;28;20703;-81
2023/08/11 11:03:11;;;;;;;4.57;3.63;;;;;;;-143.21;51.80;71445.59;5071222;28;20292;-81
2023/08/11 11:05:38;;;;;;;4.68;3.72;;;;;;;-143.21;51.16;71429.75;5072714;28;20310;-82
2023/08/11 11:08:05;;;;;;;7.07;3.70;;;;;;;-143.21;49.82;71423.78;5072223;28;20200;-82
2023/08/11 11:10:31;;;;;;;8.70;3.67;;;;;;;-143.21;49.06;71417.84;5072402;28;20205;-82
2023/08/11 11:12:58;;;;;;;3.60;3.30;;;;;;;-143.21;49.42;71400.00;5071923;28;20205;-82
2023/08/11 11:15:29;;;;;;;4.82;3.40;;;;;;;-143.21;48.91;71400.00;5072478;28;20282;-81
2023/08/11 11:17:56;;;;;;;7.55;3.75;;;;;;;-143.21;49.36;71398.03;5071777;28;20189;-82
2023/08/11 11:20:25;;;;;;;5.15;3.45;;;;;;;-143.21;48.97;71382.16;5072546;28;20660;-80